Terminal Aerodrome Forecast
Issued by NWS

Current Version | Previous Version | Graphics & Text | Print | Product List | Glossary On
Versions: 1 2 3 4 5 6 7 8 9 10 11 12 13 14 15 16 17 18 19
084
FTUS41 KILN 102330
TAFLUK
TAF
KLUK 102330Z 1100/1124 22006KT P6SM SCT040
     FM110300 25006KT P6SM SCT200
     FM110600 00000KT P6SM SCT200
     FM111400 19005KT P6SM BKN100
     FM111800 19008G16KT P6SM BKN200=

USA.gov is the U.S. government's official web portal to all federal, state and local government web resources and services.